Time;durP1;ratioP1;P1;durP2;ratioP2;P2;SDS_P1;SDS_P2;PMS_P1;PMS_P2;Temp;Humidity;BMP_temperature;BMP_pressure;BME280_temperature;BME280_humidity;BME280_pressure;Samples;Min_cycle;Max_cycle;Signal;HPM_P1;HPM_P2
2021/09/04 00:00:43;;;;;;;14.75;8.57;;;;;;;;;;5117355;28;20077;-59
2021/09/04 00:03:09;;;;;;;14.18;8.60;;;;;;;;;;5117354;28;20038;-59
2021/09/04 00:05:34;;;;;;;12.98;8.55;;;;;;;;;;5117253;28;20173;-58
2021/09/04 00:08:00;;;;;;;15.40;9.65;;;;;;;;;;5117211;28;20031;-59
2021/09/04 00:10:26;;;;;;;13.73;9.18;;;;;;;;;;5117141;28;20020;-59
2021/09/04 00:12:52;;;;;;;11.55;7.97;;;;;;;;;;5117064;28;20034;-59
2021/09/04 00:15:18;;;;;;;13.05;8.35;;;;;;;;;;5116924;28;20102;-60
2021/09/04 00:17:45;;;;;;;12.98;8.20;;;;;;;;;;5117144;28;20458;-59
2021/09/04 00:20:11;;;;;;;13.88;8.73;;;;;;;;;;5116760;28;20067;-59
2021/09/04 00:22:36;;;;;;;13.27;8.55;;;;;;;;;;5116967;28;20035;-59
2021/09/04 00:25:02;;;;;;;13.82;9.48;;;;;;;;;;5116798;28;20058;-59
2021/09/04 00:27:27;;;;;;;14.82;9.35;;;;;;;;;;5116734;28;20035;-59
2021/09/04 00:29:53;;;;;;;14.95;9.15;;;;;;;;;;5116981;28;20047;-59
2021/09/04 00:32:18;;;;;;;12.00;8.00;;;;;;;;;;5116897;28;20050;-59
2021/09/04 00:34:43;;;;;;;11.15;7.43;;;;;;;;;;5116678;28;20026;-59
2021/09/04 00:37:09;;;;;;;10.45;6.93;;;;;;;;;;5116625;28;20432;-59
2021/09/04 00:39:34;;;;;;;10.40;7.38;;;;;;;;;;5116519;28;20362;-59
2021/09/04 00:42:00;;;;;;;9.98;7.80;;;;;;;;;;5116563;28;20030;-59
2021/09/04 00:44:25;;;;;;;10.68;8.10;;;;;;;;;;5098344;28;20115;-59
2021/09/04 00:46:59;;;;;;;12.52;8.25;;;;;;;;;;5116399;28;20042;-59
2021/09/04 00:49:24;;;;;;;12.68;9.05;;;;;;;;;;5116490;28;20076;-59
2021/09/04 00:51:50;;;;;;;12.68;8.90;;;;;;;;;;5116428;28;20481;-59
2021/09/04 00:54:15;;;;;;;13.68;8.85;;;;;;;;;;5116379;28;20058;-59
2021/09/04 00:56:40;;;;;;;12.57;9.27;;;;;;;;;;5116458;28;20141;-60
2021/09/04 00:59:08;;;;;;;11.52;8.48;;;;;;;;;;5116332;28;20027;-59
2021/09/04 01:01:34;;;;;;;13.30;9.27;;;;;;;;;;5116231;28;20027;-59
2021/09/04 01:04:00;;;;;;;10.95;8.57;;;;;;;;;;5116135;28;20493;-59
2021/09/04 01:06:25;;;;;;;12.80;8.70;;;;;;;;;;5115042;28;20020;-59
2021/09/04 01:08:51;;;;;;;11.20;7.82;;;;;;;;;;5116160;28;20043;-59
2021/09/04 01:11:16;;;;;;;8.27;7.40;;;;;;;;;;5116046;28;20491;-59
2021/09/04 01:13:43;;;;;;;10.07;7.20;;;;;;;;;;5116007;28;20481;-59
2021/09/04 01:16:08;;;;;;;9.57;7.18;;;;;;;;;;5116076;28;20038;-59
2021/09/04 01:18:34;;;;;;;9.82;7.85;;;;;;;;;;5115801;28;20392;-59
2021/09/04 01:21:00;;;;;;;10.88;7.97;;;;;;;;;;5115832;28;20051;-59
2021/09/04 01:23:26;;;;;;;11.35;7.75;;;;;;;;;;5115913;28;20390;-59
2021/09/04 01:25:52;;;;;;;11.40;7.65;;;;;;;;;;5115592;28;20047;-59
2021/09/04 01:28:18;;;;;;;9.65;7.35;;;;;;;;;;5115688;28;20077;-59
2021/09/04 01:30:44;;;;;;;9.88;7.47;;;;;;;;;;5115591;28;20008;-59
2021/09/04 01:33:10;;;;;;;12.82;7.80;;;;;;;;;;5115506;28;20186;-59
2021/09/04 01:35:35;;;;;;;11.05;7.70;;;;;;;;;;5115612;28;20106;-59
2021/09/04 01:38:00;;;;;;;8.38;6.75;;;;;;;;;;5115432;28;20412;-59
2021/09/04 01:40:26;;;;;;;8.35;6.63;;;;;;;;;;5115576;28;20027;-59
2021/09/04 01:42:51;;;;;;;6.72;6.10;;;;;;;;;;5115496;28;20047;-59
2021/09/04 01:45:17;;;;;;;6.95;6.25;;;;;;;;;;5115316;28;20106;-59
2021/09/04 01:47:42;;;;;;;7.63;6.45;;;;;;;;;;5115196;28;20385;-58
2021/09/04 01:50:13;;;;;;;6.88;6.20;;;;;;;;;;5115314;28;20023;-59
2021/09/04 01:52:39;;;;;;;8.60;7.28;;;;;;;;;;5097013;28;20466;-59
2021/09/04 01:55:05;;;;;;;9.55;7.20;;;;;;;;;;5115110;28;20022;-59
2021/09/04 01:57:30;;;;;;;8.38;7.13;;;;;;;;;;5115148;28;20028;-59
2021/09/04 01:59:56;;;;;;;8.35;7.25;;;;;;;;;;5115045;28;20027;-59
2021/09/04 02:02:21;;;;;;;9.77;7.38;;;;;;;;;;5115036;28;20442;-59
2021/09/04 02:04:47;;;;;;;8.73;7.35;;;;;;;;;;5114900;28;20442;-59
2021/09/04 02:07:12;;;;;;;10.82;6.97;;;;;;;;;;5114378;28;20118;-59
2021/09/04 02:09:37;;;;;;;9.65;7.07;;;;;;;;;;5114855;28;20020;-59
2021/09/04 02:12:03;;;;;;;8.70;7.13;;;;;;;;;;5114891;28;20466;-59
2021/09/04 02:14:28;;;;;;;7.88;6.63;;;;;;;;;;5096619;28;20137;-59
2021/09/04 02:16:54;;;;;;;9.25;7.05;;;;;;;;;;5114550;28;20031;-60
2021/09/04 02:19:19;;;;;;;9.15;7.40;;;;;;;;;;5114170;28;20108;-59
2021/09/04 02:21:46;;;;;;;8.05;6.93;;;;;;;;;;5114841;28;20058;-59
2021/09/04 02:24:14;;;;;;;9.57;7.00;;;;;;;;;;5114533;28;20032;-59
2021/09/04 02:26:40;;;;;;;8.98;6.97;;;;;;;;;;5114534;28;20039;-59
2021/09/04 02:29:08;;;;;;;13.45;8.88;;;;;;;;;;5114541;28;20027;-59
2021/09/04 02:31:34;;;;;;;15.13;9.55;;;;;;;;;;5114373;28;20031;-59
2021/09/04 02:34:01;;;;;;;9.68;7.43;;;;;;;;;;5114417;28;20043;-59
2021/09/04 02:36:28;;;;;;;10.05;7.13;;;;;;;;;;5114396;28;20477;-59
2021/09/04 02:38:54;;;;;;;12.00;7.60;;;;;;;;;;5114358;28;20434;-60
2021/09/04 02:41:20;;;;;;;10.57;7.93;;;;;;;;;;5114499;28;20412;-59
2021/09/04 02:43:46;;;;;;;12.65;7.53;;;;;;;;;;5114311;28;20024;-59
2021/09/04 02:46:12;;;;;;;8.90;7.43;;;;;;;;;;5114210;28;20039;-59
2021/09/04 02:48:40;;;;;;;12.93;8.43;;;;;;;;;;5114196;28;20019;-59
2021/09/04 02:51:06;;;;;;;15.75;9.63;;;;;;;;;;5114106;28;20115;-59
2021/09/04 02:53:32;;;;;;;21.30;12.85;;;;;;;;;;5114032;28;20550;-59
2021/09/04 02:55:58;;;;;;;24.13;13.68;;;;;;;;;;5114030;28;20024;-59
2021/09/04 02:58:25;;;;;;;22.88;14.48;;;;;;;;;;5114066;28;20019;-59
2021/09/04 03:00:51;;;;;;;24.95;14.30;;;;;;;;;;5114022;28;20027;-59
2021/09/04 03:03:17;;;;;;;24.98;13.90;;;;;;;;;;5113448;28;20020;-59
2021/09/04 03:05:42;;;;;;;19.20;11.95;;;;;;;;;;5113733;28;20122;-59
2021/09/04 03:08:08;;;;;;;13.35;8.90;;;;;;;;;;5113973;28;20022;-59
2021/09/04 03:10:35;;;;;;;20.63;10.30;;;;;;;;;;5113862;28;20466;-59
2021/09/04 03:13:02;;;;;;;23.40;11.77;;;;;;;;;;5113830;28;20351;-59
2021/09/04 03:15:29;;;;;;;20.58;11.45;;;;;;;;;;5113858;28;20054;-59
2021/09/04 03:17:54;;;;;;;20.30;12.00;;;;;;;;;;5113766;28;20024;-59
2021/09/04 03:20:20;;;;;;;22.27;13.55;;;;;;;;;;5113626;28;20095;-59
2021/09/04 03:22:47;;;;;;;24.85;13.75;;;;;;;;;;5113649;28;20028;-59
2021/09/04 03:25:13;;;;;;;25.00;13.57;;;;;;;;;;5113621;28;20081;-59
2021/09/04 03:27:40;;;;;;;25.60;14.18;;;;;;;;;;5113705;28;20016;-59
2021/09/04 03:30:07;;;;;;;22.63;13.52;;;;;;;;;;5113100;28;20039;-59
2021/09/04 03:32:32;;;;;;;26.42;15.68;;;;;;;;;;5113521;28;20016;-59
2021/09/04 03:34:58;;;;;;;22.33;14.63;;;;;;;;;;5113590;28;20106;-59
2021/09/04 03:37:24;;;;;;;17.25;12.77;;;;;;;;;;5113679;28;20044;-59
2021/09/04 03:39:49;;;;;;;17.95;12.40;;;;;;;;;;5113508;28;20028;-59
2021/09/04 03:42:15;;;;;;;16.50;12.60;;;;;;;;;;5113499;28;20026;-59
2021/09/04 03:44:40;;;;;;;18.45;13.40;;;;;;;;;;5113499;28;20032;-59
2021/09/04 03:47:06;;;;;;;17.15;12.70;;;;;;;;;;5113333;28;20488;-59
2021/09/04 03:49:32;;;;;;;17.88;12.15;;;;;;;;;;5113435;28;20027;-59
2021/09/04 03:51:58;;;;;;;20.58;13.23;;;;;;;;;;5113286;28;20096;-59
2021/09/04 03:54:24;;;;;;;19.90;13.07;;;;;;;;;;5113414;28;20481;-59
2021/09/04 03:56:53;;;;;;;20.05;13.20;;;;;;;;;;5113516;28;20076;-60
2021/09/04 03:59:21;;;;;;;15.85;11.23;;;;;;;;;;5113070;28;20028;-59
2021/09/04 04:01:48;;;;;;;16.08;11.35;;;;;;;;;;5113333;28;20035;-59
2021/09/04 04:04:15;;;;;;;15.07;10.98;;;;;;;;;;5113308;28;20020;-59
2021/09/04 04:06:41;;;;;;;18.80;12.95;;;;;;;;;;5113171;28;20038;-60
2021/09/04 04:09:08;;;;;;;16.75;12.95;;;;;;;;;;5113329;28;20475;-59
2021/09/04 04:11:35;;;;;;;19.45;12.00;;;;;;;;;;5113232;28;20392;-59
2021/09/04 04:14:00;;;;;;;22.55;13.90;;;;;;;;;;5113263;28;20016;-59
2021/09/04 04:16:28;;;;;;;19.80;12.50;;;;;;;;;;5113195;28;20397;-59
2021/09/04 04:18:55;;;;;;;16.95;11.90;;;;;;;;;;5112817;28;20035;-60
2021/09/04 04:21:21;;;;;;;17.55;11.95;;;;;;;;;;5113205;28;20465;-59
2021/09/04 04:23:46;;;;;;;15.02;11.20;;;;;;;;;;5113070;28;20020;-59
2021/09/04 04:26:12;;;;;;;14.82;11.77;;;;;;;;;;5113015;28;20479;-59
2021/09/04 04:28:39;;;;;;;16.67;11.45;;;;;;;;;;5113171;28;20047;-59
2021/09/04 04:31:05;;;;;;;17.73;12.32;;;;;;;;;;5113091;28;20018;-59
2021/09/04 04:33:31;;;;;;;19.65;12.48;;;;;;;;;;5113035;28;20122;-58
2021/09/04 04:35:57;;;;;;;16.13;12.05;;;;;;;;;;5112997;28;20473;-59
2021/09/04 04:38:23;;;;;;;17.02;12.32;;;;;;;;;;5112912;28;20073;-59
2021/09/04 04:40:48;;;;;;;19.55;12.95;;;;;;;;;;5113842;28;20019;-60
2021/09/04 04:43:16;;;;;;;18.17;13.07;;;;;;;;;;5116618;28;20031;-59
2021/09/04 04:45:44;;;;;;;15.50;11.65;;;;;;;;;;5116476;28;20030;-59
2021/09/04 04:48:10;;;;;;;14.77;11.40;;;;;;;;;;5116494;28;20020;-59
2021/09/04 04:50:36;;;;;;;15.23;11.70;;;;;;;;;;5116536;28;20024;-59
2021/09/04 04:53:02;;;;;;;13.80;11.63;;;;;;;;;;5116233;28;20031;-59
2021/09/04 04:55:27;;;;;;;18.55;11.80;;;;;;;;;;5116502;28;20023;-59
2021/09/04 04:57:53;;;;;;;13.75;10.73;;;;;;;;;;5116338;28;20034;-59
2021/09/04 05:00:19;;;;;;;13.25;10.52;;;;;;;;;;5098061;28;20114;-59
2021/09/04 05:02:45;;;;;;;13.63;10.98;;;;;;;;;;5116247;28;20076;-59
2021/09/04 05:05:11;;;;;;;14.23;11.15;;;;;;;;;;5115991;28;20434;-59
2021/09/04 05:07:38;;;;;;;18.15;11.70;;;;;;;;;;5116180;28;20058;-59
2021/09/04 05:10:04;;;;;;;12.13;10.05;;;;;;;;;;5116126;28;20016;-59
2021/09/04 05:12:30;;;;;;;12.73;10.35;;;;;;;;;;5116074;28;20039;-59
2021/09/04 05:14:55;;;;;;;10.52;9.38;;;;;;;;;;5115898;28;20016;-59
2021/09/04 05:17:21;;;;;;;12.18;9.77;;;;;;;;;;5115874;28;20051;-59
2021/09/04 05:19:47;;;;;;;13.45;9.82;;;;;;;;;;5115426;28;20043;-59
2021/09/04 05:22:13;;;;;;;10.80;9.45;;;;;;;;;;5115930;28;20023;-59
2021/09/04 05:24:39;;;;;;;10.70;9.10;;;;;;;;;;5115876;28;20028;-59
2021/09/04 05:27:04;;;;;;;10.23;9.07;;;;;;;;;;5115761;28;20035;-59
2021/09/04 05:29:30;;;;;;;11.00;9.02;;;;;;;;;;5115846;28;20050;-59
2021/09/04 05:31:56;;;;;;;10.27;8.93;;;;;;;;;;5115615;28;20031;-59
2021/09/04 05:34:21;;;;;;;9.93;8.93;;;;;;;;;;5115519;28;20024;-59
2021/09/04 05:36:46;;;;;;;9.45;8.32;;;;;;;;;;5115596;28;20040;-59
2021/09/04 05:39:12;;;;;;;10.13;9.05;;;;;;;;;;5115555;28;20019;-59
2021/09/04 05:41:37;;;;;;;10.35;8.77;;;;;;;;;;5115386;28;20393;-59
2021/09/04 05:44:03;;;;;;;11.32;9.38;;;;;;;;;;5115380;28;20020;-59
2021/09/04 05:46:28;;;;;;;11.48;9.50;;;;;;;;;;5115175;28;20080;-59
2021/09/04 05:48:54;;;;;;;12.02;9.85;;;;;;;;;;5115703;28;20011;-59
2021/09/04 05:51:19;;;;;;;12.30;10.55;;;;;;;;;;5114970;28;20036;-59
2021/09/04 05:53:45;;;;;;;13.57;10.57;;;;;;;;;;5115394;28;20079;-59
2021/09/04 05:56:10;;;;;;;13.88;10.80;;;;;;;;;;5115169;28;20073;-59
2021/09/04 05:58:36;;;;;;;17.23;11.65;;;;;;;;;;5115201;28;20027;-59
2021/09/04 06:01:01;;;;;;;14.65;10.00;;;;;;;;;;5115016;28;20032;-59
2021/09/04 06:03:27;;;;;;;15.63;10.75;;;;;;;;;;5114956;28;20444;-59
2021/09/04 06:05:56;;;;;;;14.38;10.43;;;;;;;;;;5114898;28;20035;-59
2021/09/04 06:08:23;;;;;;;14.32;10.43;;;;;;;;;;5114928;28;20502;-59
2021/09/04 06:10:48;;;;;;;16.50;11.63;;;;;;;;;;5114990;28;20007;-59
2021/09/04 06:13:13;;;;;;;17.83;12.18;;;;;;;;;;5096736;28;20530;-59
2021/09/04 06:15:39;;;;;;;16.95;11.60;;;;;;;;;;5114778;28;20031;-59
2021/09/04 06:18:04;;;;;;;22.13;13.20;;;;;;;;;;5114737;28;20032;-60
2021/09/04 06:20:30;;;;;;;15.48;10.70;;;;;;;;;;5114507;28;20055;-59
2021/09/04 06:22:55;;;;;;;18.85;11.48;;;;;;;;;;5114756;28;20115;-59
2021/09/04 06:25:21;;;;;;;18.40;11.40;;;;;;;;;;5114494;28;20080;-59
2021/09/04 06:27:48;;;;;;;22.60;14.15;;;;;;;;;;5114602;28;20024;-59
2021/09/04 06:30:13;;;;;;;24.55;13.68;;;;;;;;;;5114533;28;20012;-59
2021/09/04 06:32:39;;;;;;;23.92;14.93;;;;;;;;;;5114588;28;20028;-59
2021/09/04 06:35:04;;;;;;;24.10;14.70;;;;;;;;;;5114484;28;20015;-59
2021/09/04 06:37:30;;;;;;;25.58;15.02;;;;;;;;;;5114406;28;20023;-59
2021/09/04 06:39:55;;;;;;;26.52;15.45;;;;;;;;;;5114344;28;20045;-59
2021/09/04 06:42:21;;;;;;;23.73;13.77;;;;;;;;;;5114407;28;20024;-59
2021/09/04 06:44:46;;;;;;;23.55;14.02;;;;;;;;;;5113913;28;20461;-59
2021/09/04 06:47:12;;;;;;;24.10;14.15;;;;;;;;;;5114121;28;20393;-59
2021/09/04 06:49:37;;;;;;;23.17;14.00;;;;;;;;;;5114195;28;20018;-59
2021/09/04 06:52:03;;;;;;;23.73;14.43;;;;;;;;;;5114288;28;20385;-59
2021/09/04 06:54:28;;;;;;;26.58;16.52;;;;;;;;;;5114206;28;20023;-59
2021/09/04 06:56:54;;;;;;;29.27;16.27;;;;;;;;;;5114041;28;20114;-59
2021/09/04 06:59:19;;;;;;;23.75;14.52;;;;;;;;;;5113982;28;20026;-59
2021/09/04 07:01:45;;;;;;;21.88;13.73;;;;;;;;;;5113924;28;20546;-59
2021/09/04 07:04:11;;;;;;;23.40;15.25;;;;;;;;;;5113099;28;20068;-59
2021/09/04 07:06:37;;;;;;;26.83;15.52;;;;;;;;;;5113766;28;20066;-59
2021/09/04 07:09:02;;;;;;;25.38;14.82;;;;;;;;;;5113815;28;20019;-59
2021/09/04 07:11:28;;;;;;;25.02;15.25;;;;;;;;;;5113817;28;20067;-59
2021/09/04 07:13:53;;;;;;;27.23;16.20;;;;;;;;;;5113826;28;20096;-59
2021/09/04 07:16:20;;;;;;;25.05;16.17;;;;;;;;;;5113759;28;20032;-59
2021/09/04 07:18:45;;;;;;;23.70;15.00;;;;;;;;;;5095317;28;20024;-60
2021/09/04 07:21:11;;;;;;;27.52;16.23;;;;;;;;;;5113798;28;20050;-59
2021/09/04 07:23:36;;;;;;;24.48;16.27;;;;;;;;;;5113651;28;20028;-59
2021/09/04 07:26:01;;;;;;;28.55;16.00;;;;;;;;;;5113629;28;20118;-59
2021/09/04 07:28:27;;;;;;;25.00;15.85;;;;;;;;;;5113759;28;20024;-59
2021/09/04 07:30:53;;;;;;;32.45;19.88;;;;;;;;;;5113635;28;20035;-59
2021/09/04 07:33:18;;;;;;;25.77;15.23;;;;;;;;;;5113552;28;20072;-59
2021/09/04 07:35:44;;;;;;;27.45;17.55;;;;;;;;;;5113558;28;20439;-59
2021/09/04 07:38:09;;;;;;;28.40;17.52;;;;;;;;;;5113143;28;20051;-59
2021/09/04 07:40:35;;;;;;;32.58;20.63;;;;;;;;;;5113552;28;20462;-60
2021/09/04 07:43:02;;;;;;;29.38;19.70;;;;;;;;;;5113397;28;20065;-59
2021/09/04 07:45:28;;;;;;;26.48;17.33;;;;;;;;;;5113451;28;20027;-59
2021/09/04 07:47:53;;;;;;;28.33;16.83;;;;;;;;;;5113424;28;20131;-60
2021/09/04 07:50:19;;;;;;;23.65;15.65;;;;;;;;;;5113406;28;20028;-59
2021/09/04 07:52:44;;;;;;;26.63;16.42;;;;;;;;;;5113463;28;20464;-59
2021/09/04 07:55:10;;;;;;;25.40;17.25;;;;;;;;;;5113488;28;20042;-59
2021/09/04 07:57:35;;;;;;;30.17;16.20;;;;;;;;;;5113310;28;20016;-59
2021/09/04 08:00:01;;;;;;;25.45;15.85;;;;;;;;;;5113277;28;20031;-59
2021/09/04 08:02:27;;;;;;;21.98;14.65;;;;;;;;;;5113211;28;20031;-59
2021/09/04 08:04:52;;;;;;;22.33;13.35;;;;;;;;;;5113224;28;20030;-59
2021/09/04 08:07:17;;;;;;;18.95;13.45;;;;;;;;;;5113195;28;20016;-59
2021/09/04 08:09:43;;;;;;;19.52;13.02;;;;;;;;;;5113271;28;20030;-59
2021/09/04 08:12:08;;;;;;;18.55;12.75;;;;;;;;;;5113127;28;20019;-59
2021/09/04 08:14:34;;;;;;;19.48;13.02;;;;;;;;;;5113636;28;20030;-59
2021/09/04 08:16:59;;;;;;;21.67;12.55;;;;;;;;;;5117143;28;20051;-59
2021/09/04 08:19:25;;;;;;;20.73;13.18;;;;;;;;;;5116592;28;20036;-59
2021/09/04 08:21:50;;;;;;;20.38;12.48;;;;;;;;;;5117106;28;20085;-59
2021/09/04 08:24:16;;;;;;;17.85;12.40;;;;;;;;;;5117086;28;20066;-59
2021/09/04 08:26:43;;;;;;;20.00;12.00;;;;;;;;;;5116776;28;20477;-59
2021/09/04 08:29:09;;;;;;;17.52;12.02;;;;;;;;;;5116808;28;20043;-59
2021/09/04 08:31:34;;;;;;;19.27;13.10;;;;;;;;;;5117003;28;20385;-59
2021/09/04 08:34:00;;;;;;;17.85;12.52;;;;;;;;;;5117034;28;20031;-59
2021/09/04 08:36:25;;;;;;;20.67;13.93;;;;;;;;;;5116644;28;20028;-59
2021/09/04 08:38:50;;;;;;;18.13;12.93;;;;;;;;;;5116687;28;20033;-59
2021/09/04 08:41:17;;;;;;;18.88;13.18;;;;;;;;;;5116641;28;20032;-59
2021/09/04 08:43:42;;;;;;;21.05;13.15;;;;;;;;;;5116619;28;20020;-59
2021/09/04 08:46:11;;;;;;;19.55;12.20;;;;;;;;;;5116414;28;20395;-59
2021/09/04 08:48:37;;;;;;;16.45;11.40;;;;;;;;;;5116479;28;20016;-59
2021/09/04 08:51:02;;;;;;;18.30;12.30;;;;;;;;;;5116493;28;20359;-59
2021/09/04 08:53:28;;;;;;;17.40;11.73;;;;;;;;;;5116343;28;20026;-59
2021/09/04 08:55:53;;;;;;;18.17;11.88;;;;;;;;;;5116313;28;20038;-60
2021/09/04 08:58:18;;;;;;;17.58;12.25;;;;;;;;;;5116389;28;20136;-59
2021/09/04 09:00:44;;;;;;;15.80;11.57;;;;;;;;;;5116260;28;20081;-59
2021/09/04 09:03:19;;;;;;;17.10;12.32;;;;;;;;;;5116126;28;20072;-59
2021/09/04 09:05:45;;;;;;;24.98;13.00;;;;;;;;;;5116036;28;20027;-59
2021/09/04 09:08:17;;;;;;;22.75;13.50;;;;;;;;;;5116261;28;20023;-59
2021/09/04 09:10:44;;;;;;;19.23;13.10;;;;;;;;;;5098015;28;20024;-59
2021/09/04 09:13:14;;;;;;;23.60;13.43;;;;;;;;;;5116165;28;20038;-59
2021/09/04 09:15:40;;;;;;;17.63;12.48;;;;;;;;;;5116036;28;20111;-59
2021/09/04 09:18:09;;;;;;;19.90;13.18;;;;;;;;;;5116055;28;20065;-59
2021/09/04 09:20:35;;;;;;;20.13;13.68;;;;;;;;;;5115858;28;20046;-59
2021/09/04 09:23:11;;;;;;;17.88;12.48;;;;;;;;;;5115708;28;20032;-59
2021/09/04 09:25:37;;;;;;;22.85;13.85;;;;;;;;;;5115394;28;20089;-59
2021/09/04 09:28:03;;;;;;;22.33;15.30;;;;;;;;;;5114965;28;20024;-59
2021/09/04 09:30:29;;;;;;;25.88;15.82;;;;;;;;;;5097608;28;20038;-59
2021/09/04 09:32:55;;;;;;;20.55;14.13;;;;;;;;;;5115772;28;20355;-59
2021/09/04 09:35:28;;;;;;;21.35;14.32;;;;;;;;;;5115699;28;20031;-59
2021/09/04 09:37:54;;;;;;;14.77;12.30;;;;;;;;;;5097500;28;20371;-59
2021/09/04 09:40:22;;;;;;;19.73;14.18;;;;;;;;;;5097205;28;20015;-59
2021/09/04 09:42:48;;;;;;;19.92;13.43;;;;;;;;;;5115676;28;20023;-59
2021/09/04 09:45:13;;;;;;;17.27;12.30;;;;;;;;;;5115422;28;20037;-59
2021/09/04 09:47:48;;;;;;;15.05;12.40;;;;;;;;;;5115306;28;20481;-59
2021/09/04 09:50:14;;;;;;;18.80;13.15;;;;;;;;;;5115328;28;20019;-59
2021/09/04 09:52:39;;;;;;;16.90;12.55;;;;;;;;;;5115330;28;20088;-59
2021/09/04 09:55:06;;;;;;;18.58;13.63;;;;;;;;;;5115323;28;20020;-59
2021/09/04 09:57:32;;;;;;;18.02;14.18;;;;;;;;;;5115135;28;20030;-59
2021/09/04 09:59:58;;;;;;;18.60;13.02;;;;;;;;;;5115081;28;20028;-59
2021/09/04 10:02:23;;;;;;;20.42;12.45;;;;;;;;;;5096818;28;20016;-59
2021/09/04 10:04:49;;;;;;;19.02;12.40;;;;;;;;;;5115113;28;20020;-59
2021/09/04 10:07:16;;;;;;;15.40;12.18;;;;;;;;;;5114965;28;20019;-59
2021/09/04 10:09:41;;;;;;;17.77;12.23;;;;;;;;;;5115022;28;20033;-59
2021/09/04 10:12:07;;;;;;;14.82;11.10;;;;;;;;;;5114976;28;20022;-59
2021/09/04 10:14:34;;;;;;;16.73;10.55;;;;;;;;;;5114804;28;20414;-59
2021/09/04 10:17:00;;;;;;;12.95;10.20;;;;;;;;;;5114956;28;20457;-59
2021/09/04 10:19:28;;;;;;;17.15;11.88;;;;;;;;;;5114338;28;20036;-59
2021/09/04 10:22:04;;;;;;;14.85;11.70;;;;;;;;;;5114727;28;20062;-59
2021/09/04 10:24:42;;;;;;;17.23;11.82;;;;;;;;;;5114863;28;20389;-59
2021/09/04 10:27:08;;;;;;;17.70;11.90;;;;;;;;;;5114446;28;20043;-59
2021/09/04 10:29:39;;;;;;;12.00;9.68;;;;;;;;;;5114507;28;20085;-59
2021/09/04 10:32:05;;;;;;;14.93;10.50;;;;;;;;;;5114487;28;20084;-59
2021/09/04 10:34:37;;;;;;;15.48;10.95;;;;;;;;;;5114481;28;20020;-59
2021/09/04 10:37:12;;;;;;;15.38;11.60;;;;;;;;;;5114448;28;20036;-59
2021/09/04 10:39:51;;;;;;;15.32;11.48;;;;;;;;;;5114282;28;20489;-59
2021/09/04 10:42:18;;;;;;;16.00;10.20;;;;;;;;;;5114264;28;20409;-59
2021/09/04 10:44:47;;;;;;;16.92;11.52;;;;;;;;;;5114268;28;20023;-59
2021/09/04 10:47:13;;;;;;;13.15;10.27;;;;;;;;;;5114075;28;20024;-59
2021/09/04 10:49:42;;;;;;;16.48;11.68;;;;;;;;;;5114078;28;20026;-59
2021/09/04 10:52:08;;;;;;;15.68;10.82;;;;;;;;;;5114298;28;20022;-59
2021/09/04 10:54:37;;;;;;;20.80;11.55;;;;;;;;;;5114160;28;20020;-59
2021/09/04 10:57:14;;;;;;;17.13;11.20;;;;;;;;;;5114168;28;20020;-59
2021/09/04 10:59:58;;;;;;;18.02;12.20;;;;;;;;;;5114212;28;20059;-59
2021/09/04 11:02:37;;;;;;;15.48;10.23;;;;;;;;;;5114035;28;20028;-59
2021/09/04 11:05:22;;;;;;;13.23;11.45;;;;;;;;;;5114022;28;20027;-59
2021/09/04 11:07:47;;;;;;;12.98;10.10;;;;;;;;;;5113960;28;20031;-59
2021/09/04 11:10:21;;;;;;;12.43;9.32;;;;;;;;;;5113998;28;20096;-59
2021/09/04 11:13:02;;;;;;;15.45;10.60;;;;;;;;;;5113837;28;20431;-59
2021/09/04 11:15:28;;;;;;;15.88;11.00;;;;;;;;;;5113426;28;20066;-59
2021/09/04 11:17:54;;;;;;;14.55;10.68;;;;;;;;;;5113735;28;20047;-58
2021/09/04 11:20:19;;;;;;;14.45;9.73;;;;;;;;;;5113433;28;20027;-59
2021/09/04 11:22:45;;;;;;;14.43;10.38;;;;;;;;;;5113981;28;20016;-59
2021/09/04 11:25:12;;;;;;;15.07;10.35;;;;;;;;;;5113619;28;20393;-59
2021/09/04 11:27:43;;;;;;;14.48;10.70;;;;;;;;;;5113662;28;20098;-59
2021/09/04 11:30:08;;;;;;;13.60;10.38;;;;;;;;;;5113701;28;20054;-59
2021/09/04 11:32:34;;;;;;;14.88;11.05;;;;;;;;;;5113661;28;20019;-59
2021/09/04 11:35:01;;;;;;;15.02;11.05;;;;;;;;;;5113654;28;20024;-59
2021/09/04 11:37:36;;;;;;;17.27;10.95;;;;;;;;;;5113535;28;20515;-59
2021/09/04 11:40:02;;;;;;;18.65;11.43;;;;;;;;;;5113542;28;20039;-59
2021/09/04 11:42:28;;;;;;;14.85;11.05;;;;;;;;;;5113569;28;20016;-59
2021/09/04 11:45:00;;;;;;;16.00;11.27;;;;;;;;;;5113578;28;20403;-59
2021/09/04 11:47:26;;;;;;;15.18;10.80;;;;;;;;;;5095253;28;20032;-59
2021/09/04 11:49:56;;;;;;;16.40;11.18;;;;;;;;;;5114539;28;20062;-59
2021/09/04 11:52:23;;;;;;;18.85;12.45;;;;;;;;;;5117668;28;20643;-59
2021/09/04 11:54:49;;;;;;;16.65;10.52;;;;;;;;;;5117628;28;20023;-59
2021/09/04 11:57:23;;;;;;;15.68;10.18;;;;;;;;;;5117592;28;20028;-59
2021/09/04 11:59:56;;;;;;;14.45;10.93;;;;;;;;;;5117550;28;20032;-59
2021/09/04 12:02:22;;;;;;;15.38;10.57;;;;;;;;;;5117307;28;20122;-59
2021/09/04 12:04:48;;;;;;;14.60;9.73;;;;;;;;;;5117428;28;20023;-59
2021/09/04 12:07:13;;;;;;;15.35;9.77;;;;;;;;;;5117262;28;20431;-59
2021/09/04 12:09:39;;;;;;;19.13;10.43;;;;;;;;;;5117241;28;20023;-59
2021/09/04 12:12:04;;;;;;;11.02;9.68;;;;;;;;;;5117238;28;20054;-59
2021/09/04 12:14:31;;;;;;;17.40;10.98;;;;;;;;;;5117221;28;20019;-59
2021/09/04 12:16:56;;;;;;;13.27;9.30;;;;;;;;;;5117299;28;20027;-59
2021/09/04 12:19:22;;;;;;;17.75;10.40;;;;;;;;;;5116792;28;20036;-59
2021/09/04 12:21:52;;;;;;;16.00;10.43;;;;;;;;;;5117124;28;20032;-58
2021/09/04 12:24:17;;;;;;;18.70;11.40;;;;;;;;;;5117105;28;20028;-59
2021/09/04 12:26:49;;;;;;;16.17;11.80;;;;;;;;;;5116998;28;20442;-59
2021/09/04 12:29:15;;;;;;;15.45;11.05;;;;;;;;;;5116984;28;20486;-59
2021/09/04 12:31:45;;;;;;;14.40;10.63;;;;;;;;;;5116844;28;20016;-59
2021/09/04 12:34:20;;;;;;;16.20;9.40;;;;;;;;;;5116746;28;20465;-59
2021/09/04 12:36:46;;;;;;;14.63;10.05;;;;;;;;;;5116786;28;20053;-59
2021/09/04 12:39:29;;;;;;;13.50;10.18;;;;;;;;;;5116773;28;20103;-59
2021/09/04 12:41:59;;;;;;;15.85;10.23;;;;;;;;;;5116725;28;20027;-59
2021/09/04 12:44:34;;;;;;;14.75;9.77;;;;;;;;;;5116599;28;20050;-59
2021/09/04 12:47:02;;;;;;;14.60;9.82;;;;;;;;;;5116586;28;20417;-59
2021/09/04 12:49:27;;;;;;;13.02;9.77;;;;;;;;;;5098347;28;20099;-59
2021/09/04 12:51:55;;;;;;;13.57;9.93;;;;;;;;;;5116613;28;20547;-59
2021/09/04 12:54:27;;;;;;;12.93;9.15;;;;;;;;;;5116509;28;20032;-59
2021/09/04 12:57:02;;;;;;;12.90;10.38;;;;;;;;;;5116536;28;20128;-59
2021/09/04 12:59:27;;;;;;;14.30;10.52;;;;;;;;;;5116484;28;20088;-59
2021/09/04 13:01:53;;;;;;;12.98;9.65;;;;;;;;;;5114998;28;20073;-59
2021/09/04 13:04:19;;;;;;;16.20;10.00;;;;;;;;;;5116133;28;20027;-59
2021/09/04 13:06:44;;;;;;;13.65;9.75;;;;;;;;;;5116021;28;20475;-59
2021/09/04 13:09:09;;;;;;;16.20;11.35;;;;;;;;;;5116199;28;20535;-59
2021/09/04 13:11:35;;;;;;;13.00;9.40;;;;;;;;;;5116099;28;20062;-59
2021/09/04 13:14:00;;;;;;;15.55;10.57;;;;;;;;;;5116106;28;20107;-59
2021/09/04 13:16:27;;;;;;;18.30;11.77;;;;;;;;;;5115905;28;20027;-59
2021/09/04 13:18:52;;;;;;;24.60;11.85;;;;;;;;;;5115605;28;20031;-60
2021/09/04 13:21:18;;;;;;;19.70;12.52;;;;;;;;;;5116187;28;20173;-59
2021/09/04 13:23:44;;;;;;;20.02;13.15;;;;;;;;;;5115835;28;20027;-59
2021/09/04 13:26:10;;;;;;;13.15;10.02;;;;;;;;;;5115820;28;20462;-59
2021/09/04 13:28:35;;;;;;;15.98;11.02;;;;;;;;;;5097601;28;20072;-59
2021/09/04 13:31:01;;;;;;;14.10;10.75;;;;;;;;;;5115811;28;20023;-59
2021/09/04 13:33:27;;;;;;;17.67;11.57;;;;;;;;;;5115733;28;20044;-59
2021/09/04 13:35:53;;;;;;;12.45;10.38;;;;;;;;;;5115595;28;20042;-60
2021/09/04 13:38:18;;;;;;;16.67;11.65;;;;;;;;;;5115547;28;20027;-59
2021/09/04 13:40:44;;;;;;;14.85;10.75;;;;;;;;;;5115543;28;20554;-59
2021/09/04 13:43:09;;;;;;;14.48;10.13;;;;;;;;;;5115532;28;20030;-59
2021/09/04 13:45:35;;;;;;;13.50;10.90;;;;;;;;;;5115321;28;20162;-59
2021/09/04 13:48:00;;;;;;;12.48;9.48;;;;;;;;;;5097215;28;20068;-59
2021/09/04 13:50:26;;;;;;;13.90;10.07;;;;;;;;;;5115469;28;20023;-59
2021/09/04 13:52:51;;;;;;;12.93;10.48;;;;;;;;;;5115403;28;20473;-59
2021/09/04 13:55:17;;;;;;;27.63;15.18;;;;;;;;;;5115355;28;20035;-59
2021/09/04 13:57:42;;;;;;;29.05;17.88;;;;;;;;;;5114951;28;20190;-59
2021/09/04 14:00:08;;;;;;;15.55;10.57;;;;;;;;;;5115324;28;20020;-59
2021/09/04 14:02:39;;;;;;;16.08;11.52;;;;;;;;;;5115224;28;20019;-59
2021/09/04 14:05:05;;;;;;;17.00;12.25;;;;;;;;;;5096999;28;20028;-59
2021/09/04 14:07:31;;;;;;;13.30;9.82;;;;;;;;;;5115099;28;20110;-59
2021/09/04 14:09:56;;;;;;;13.15;10.60;;;;;;;;;;5115056;28;20034;-59
2021/09/04 14:12:22;;;;;;;15.52;10.50;;;;;;;;;;5114599;28;20020;-59
2021/09/04 14:14:47;;;;;;;21.10;10.57;;;;;;;;;;5114886;28;20015;-59
2021/09/04 14:17:12;;;;;;;17.73;11.32;;;;;;;;;;5114781;28;20026;-59